Blowing Sand Mountains, Nevada Weather observations

Data are for observation ending at time listed.
 Day   Time    Ave.   Ave.  Ave.  Vector   Max.   Stn.    Total    Solar   Ave.  
  of    of     Air    Rel.  Wind   Wind    Wind   Baro.  Precip.   Rad.    Soil  
Year   Day     Temp.  Hum.  Speed  Dir.    Gust   Pres.                    Temp. 
2015   (PST)    F      %     mph   deg.    mph     mb.     in.     W/m2     F   
------------------------------------------------------------------------------
  85    8:30   51.3    33    0.7   350      1.8    891.9     0.00     503     52.7
  85    8:40   52.1    32    1.1   272      2.6    891.9     0.00     491     52.7
  85    8:50   51.9    33    2.1   274      3.9    892.0     0.00     516     52.6
  85    9:00   53.0    32    2.0   272      3.4    892.0     0.00     565     52.6
  85    9:10   54.2    31    1.9   275      4.2    892.0     0.00     565     52.6
  85    9:20   56.0    30    0.8   298      3.7    891.9     0.00     591     52.5
  85    9:30   58.7    27    1.0   287      2.8    891.8     0.00     644     52.4
  85    9:40   59.6    26    1.4   282      4.1    891.7     0.00     634     52.4
  85    9:50   59.8    26    2.0   287      4.2    891.5     0.00     663     52.4
  85   10:00   61.1    25    1.7   302      4.4    891.3     0.00     697     52.3
  85   10:10   61.2    25    1.6   312      4.5    891.2     0.00     651     52.2
  85   10:20   62.2    24    1.7    66      3.3    891.1     0.00     711     52.2
  85   10:30   63.2    23    1.3   264      3.8    891.0     0.00     749     52.2
  85   10:40   63.5    23    2.6   282      5.9    890.8     0.00     733     52.1
  85   10:50   63.6    23    2.7   334      5.9    890.7     0.00     748     52.1
  85   11:00   63.7    23    2.2   335      4.3    890.6     0.00     784     52.1
  85   11:10   64.4    22    4.2   301      7.5    890.5     0.00     813     52.1
  85   11:20   65.0    22    3.1   242      7.3    890.5     0.00     841     52.1
  85   11:30   66.6    21    3.0   215      5.8    890.4     0.00     820     52.0
  85   11:40   67.4    20    3.3   177      6.4    890.3     0.00     834     52.0
  85   11:50   68.4    19    3.3   137      6.1    890.1     0.00     849     52.0
  85   12:00   67.7    20    3.3   321     10.0    890.0     0.00     850     52.0
  85   12:10   67.5    20    2.9   310      6.3    889.8     0.00     850     52.0
  85   12:20   68.3    19    4.3   311     10.0    889.7     0.00     847     52.0
  85   12:30   67.6    20    5.3   309      8.3    889.6     0.00     843     52.0
  85   12:40   69.0    19    1.9   231      6.9    889.4     0.00     838     52.0
  85   12:50   70.2    18    2.9   319      6.9    889.2     0.00     834     52.0
  85   13:00   69.9    18    1.1    36      3.7    889.0     0.00     826     52.1
  85   13:10   70.2    18    4.0   318      8.7    888.7     0.00     815     52.1
  85   13:20   70.4    18    3.4    28      8.3    888.5     0.00     802     52.1
  85   13:30   70.8    17    4.3   312      8.8    888.3     0.00     789     52.2
  85   13:40   71.0    17    4.6   336      8.0    888.2     0.00     774     52.2
  85   13:50   71.7    16    2.7    39      8.6    888.0     0.00     757     52.2
  85   14:00   72.3    15    2.2    58      6.3    887.8     0.00     740     52.3
  85   14:10   73.9    14    2.3   191      4.5    887.7     0.00     720     52.4
  85   14:20   73.4    14    2.6   284      8.0    887.5     0.00     699     52.4
  85   14:30   72.4    15    4.8   321      9.4    887.4     0.00     676     52.5
  85   14:40   73.1    15    2.4   295      6.6    887.2     0.00     652     52.5
  85   14:50   73.7    15    4.1   319      8.9    887.1     0.00     627     52.6
  85   15:00   73.4    15    4.6   338      7.7    887.0     0.00     600     52.7
  85   15:10   73.5    15    3.1    63      6.1    886.9     0.00     573     52.8
  85   15:20   74.0    14    3.3    34      7.7    886.8     0.00     544     52.8
  85   15:30   73.7    14    3.9   351      9.9    886.8     0.00     515     52.9
  85   15:40   73.5    14    3.9   333      7.5    886.6     0.00     485     53.0
  85   15:50   74.4    14    3.5   314      9.2    886.5     0.00     454     53.1
  85   16:00   74.2    14    4.7   358     10.4    886.4     0.00     423     53.1
  85   16:10   74.4    14    1.6    42      6.3    886.3     0.00     391     53.2
  85   16:20   74.8    14    4.4     4      9.3    886.3     0.00     358     53.3
  85   16:30   74.3    14    4.6    11      9.6    886.2     0.00     325     53.4
  85   16:40   73.9    14    4.0   358      9.4    886.2     0.00     292     53.5
  85   16:50   73.6    14    5.3    13      9.1    886.1     0.00     258     53.6
  85   17:00   73.3    14    6.5   345     10.8    886.0     0.00     225     53.7
  85   17:10   73.3    14    7.2     7     10.6    886.0     0.00     193     53.7
  85   17:20   72.9    14    7.3     5     10.4    886.0     0.00     161     53.8
  85   17:30   72.7    14    6.3   346      8.6    886.0     0.00     129     53.9
  85   17:40   72.2    14    6.2   345      9.0    886.0     0.00      92     54.0
  85   17:50   71.6    15    4.8   347      7.8    886.0     0.00      55     54.1
  85   18:00   70.6    15    4.6   341      7.6    886.0     0.00      25     54.2
  85   18:10   69.0    17    3.8   331      5.8    886.0     0.00       8     54.3
  85   18:20   67.7    18    3.2   325      4.8    886.1     0.00       4     54.4
  85   18:30   65.8    18    2.6   297      3.4    886.1     0.00       1     54.5
  85   18:40   64.1    19    2.6   280      4.5    886.1     0.00       0     54.6
  85   18:50   63.2    20    4.7   285      8.0    886.2     0.00       0     54.7
  85   19:00   61.8    20    4.3   262      6.9    886.4     0.00       0     54.8
  85   19:10   60.4    21    3.8   255      5.5    886.5     0.00       0     54.8
  85   19:20   60.6    22    2.8   238      5.5    886.6     0.00       0     54.9
  85   19:30   60.8    22    4.0   235      6.0    886.7     0.00       0     55.0
  85   19:40   63.2    22    2.2    50      5.6    886.8     0.00       0     55.1
  85   19:50   60.7    22    2.3   203      4.4    886.9     0.00       0     55.1
  85   20:00   57.1    24    3.9   232      5.8    887.0     0.00       0     55.2
  85   20:10   56.1    25    2.2   121      4.0    887.1     0.00       0     55.3
  85   20:20   56.1    25    1.0   258      3.3    887.2     0.00       0     55.3
  85   20:30   54.9    26    1.2   231      4.5    887.2     0.00       0     55.4
  85   20:40   53.7    27    1.5   101      3.0    887.3     0.00       0     55.4
  85   20:50   51.7    28    2.0   165      3.3    887.3     0.00       0     55.5
  85   21:00   51.4    29    1.1   115      2.8    887.3     0.00       0     55.5
  85   21:10   50.6    29    2.1   125      2.9    887.4     0.00       0     55.5
  85   21:20   49.9    30    2.1   106      3.3    887.5     0.00       0     55.6
  85   21:30   49.1    31    1.6   126      2.5    887.6     0.00       0     55.6
  85   21:40   48.3    32    1.9   134      3.9    887.6     0.00       0     55.6
  85   21:50   47.5    32    3.3   154      3.9    887.7     0.00       0     55.7
  85   22:00   45.8    32    2.3   159      3.4    887.7     0.00       0     55.7
  85   22:10   45.2    33    2.1   138      3.7    887.8     0.00       0     55.7
  85   22:20   45.1    34    2.2   115      3.5    887.8     0.00       0     55.7
  85   22:30   44.7    35    3.2   146      4.2    887.8     0.00       0     55.7
  85   22:40   44.7    36    2.0   145      2.8    887.8     0.00       0     55.7
  85   22:50   44.3    36    2.6   150      3.2    887.8     0.00       0     55.7
  85   23:00   43.6    37    2.2   146      3.2    887.8     0.00       0     55.8
  85   23:10   44.4    38    3.2   119      4.5    887.8     0.00       0     55.8
  85   23:20   44.1    37    2.2   108      3.1    887.8     0.00       0     55.8
  85   23:30   42.9    40    2.0   148      2.7    887.8     0.00       0     55.8
  85   23:40   43.1    39    1.9   154      3.4    887.8     0.00       0     55.8
  85   23:50   42.3    40    2.2   156      3.6    887.8     0.00       0     55.8
  86    0:00   39.9    36    2.2   351      3.7    887.9     0.00       0     55.8
  86    0:10   38.0    38    1.8   339      2.6    887.9     0.00       0     55.8
  86    0:20   38.3    38    0.2    69      0.9    887.9     0.00       0     55.7
  86    0:30   40.0    39    1.5    81      2.5    887.9     0.00       0     55.7
  86    0:40   40.1    40    1.8    90      2.6    887.7     0.00       0     55.7
  86    0:50   39.0    38    0.3   336      1.2    887.7     0.00       0     55.7
  86    1:00   37.6    42    1.5   190      3.0    887.7     0.00       0     55.7
  86    1:10   38.1    45    2.0   172      2.8    887.7     0.00       0     55.6
  86    1:20   39.2    44    1.7   114      2.9    887.8     0.00       0     55.6
  86    1:30   38.6    42    1.7    99      3.6    887.7     0.00       0     55.6
  86    1:40   37.4    44    0.0     0      0.0    887.7     0.00       0     55.5
  86    1:50   37.5    46    0.0   178      0.4    887.6     0.00       0     55.5
  86    2:00   38.0    47    2.7   155      3.5    887.6     0.00       0     55.5
  86    2:10   39.8    46    2.3   176      3.1    887.5     0.00       0     55.5
  86    2:20   38.2    43    2.1   358      3.5    887.5     0.00       0     55.4
  86    2:30   36.5    44    1.2   352      3.1    887.6     0.00       0     55.4
  86    2:40   35.6    44    0.3     7      1.1    887.6     0.00       0     55.4
  86    2:50   34.8    45    0.4   161      1.9    887.6     0.00       0     55.3
  86    3:00   34.6    47    0.2   174      1.3    887.6     0.00       0     55.3
  86    3:10   35.0    48    0.1   277      1.2    887.6     0.00       0     55.3
  86    3:20   35.1    48    0.9   182      2.0    887.5     0.00       0     55.2
  86    3:30   34.7    49    1.8    94      2.9    887.5     0.00       0     55.2
  86    3:40   35.6    49    1.6    53      2.6    887.5     0.00       0     55.1
  86    3:50   34.3    49    1.0   173      2.0    887.5     0.00       0     55.1
  86    4:00   34.0    49    1.2   206      2.9    887.6     0.00       0     55.1
  86    4:10   32.5    46    1.6   357      2.4    887.6     0.00       0     55.0
  86    4:20   32.1    47    0.5   121      2.2    887.6     0.00       0     55.0
  86    4:30   32.7    49    1.8   136      2.1    887.5     0.00       0     54.9
  86    4:40   32.1    50    1.2   178      2.0    887.6     0.00       0     54.9
  86    4:50   32.4    52    0.9    72      2.0    887.6     0.00       0     54.8
  86    5:00   32.5    51    0.8    41      1.4    887.6     0.00       0     54.8
  86    5:10   33.0    53    1.8    50      2.6    887.6     0.00       0     54.7
  86    5:20   33.5    50    0.6    56      2.4    887.7     0.00       0     54.7
  86    5:30   31.4    48    1.5   284      3.1    887.7     0.00       0     54.6
  86    5:40   31.6    50    0.9   268      2.6    887.8     0.00       1     54.6
  86    5:50   30.0    47    0.7    18      2.3    887.8     0.00       4     54.5
  86    6:00   30.2    50    2.4   144      3.5    887.8     0.00       8     54.5
  86    6:10   31.2    55    0.8   177      3.1    887.9     0.00      14     54.4
  86    6:20   32.9    48    0.2    78      1.0    888.0     0.00      52     54.4
  86    6:30   34.7    45    0.0     0      0.0    888.1     0.00      88     54.2
  86    6:40   35.9    42    0.5   297      1.5    888.1     0.00     123     54.2
  86    6:50   35.4    42    1.2   263      3.1    888.2     0.00     154     54.1
  86    7:00   35.9    42    0.5   278      1.9    888.1     0.00     186     54.0
  86    7:10   38.9    40    0.8    39      1.7    888.0     0.00     218     54.0
  86    7:20   43.8    36    0.2   171      1.3    887.9     0.00     251     53.9
  86    7:30   49.0    32    0.0   175      0.4    887.8     0.00     285     53.9
  86    7:40   51.9    30    0.5   259      2.2    887.8     0.00     318     53.8
  86    7:50   50.4    32    0.9   228      2.6    887.8     0.00     352     53.8
  86    8:00   53.8    29    0.1   274      0.7    887.8     0.00     386     53.8
  86    8:10   57.2    26    0.3   110      1.2    887.7     0.00     419     53.7
  86    8:20   59.0    25    0.4    25      1.8    887.7     0.00     446     53.7

Return to Blowing Sand Mountains graphs page.


Western Regional Climate Center,wrcc@dri.edu